Terminal Aerodrome Forecast
Issued by NWS

Home | Current Version | Previous Version | Text Only | Print | Product List | Glossary On
Versions: 1 2 3 4 5 6 7 8 9 10 11 12 13 14 15 16 17 18 19 20 21 22
000
FTUS43 KAPX 200500
TAFAPN
TAF
KAPN 200532Z 2006/2106 00000KT 4SM BR OVC017
     FM200800 00000KT 2SM BR SCT006 OVC015
     FM201600 VRB03KT 6SM BR VCSH OVC012
     FM202000 09005KT P6SM BKN018
     FM210200 00000KT 5SM BR OVC008=

USA.gov is the U.S. government's official web portal to all federal, state and local government web resources and services.